Date,TemperatureHighF,TemperatureAvgF,TemperatureLowF,DewpointHighF,DewpointAvgF,DewpointLowF,HumidityHigh,HumidityAvg,HumidityLow,PressureMaxIn,PressureMinIn,WindSpeedMaxMPH,WindSpeedAvgMPH,GustSpeedMaxMPH,PrecipitationSumIn
2013-7-1,82,53,74,75,18,-100,92,57,76,29.95,29.80,1,-321,7,0.01
2013-7-2,83,50,73,75,13,-100,94,57,74,30.14,29.95,2,-347,12,0.01
2013-7-3,85,50,73,78,9,-100,95,52,76,30.19,30.13,1,-376,2,0.02
2013-7-4,87,54,75,76,14,-100,93,50,65,30.22,30.14,1,-342,7,0.02
2013-7-5,90,57,75,75,15,-100,90,44,53,30.19,30.08,2,-335,10,0.02
2013-7-6,93,56,76,76,12,-100,88,42,52,30.14,30.03,2,-354,6,0.02
2013-7-7,92,48,74,75,-2,-100,86,38,55,30.07,29.95,2,-435,7,0.02
2013-7-8,88,52,72,72,10,-100,93,46,50,30.06,29.99,2,-346,8,0.01
2013-7-9,87,59,74,76,24,-100,89,56,64,30.06,29.96,1,-276,5,0.00
2013-7-10,90,53,74,78,13,-100,93,51,61,29.97,29.82,3,-346,12,0.00
2013-7-11,83,47,74,74,3,-100,95,48,66,29.88,29.80,2,-388,8,0.00
2013-7-12,72,33,69,71,-20,-100,97,45,96,29.96,29.82,1,-262,6,0.00
2013-7-13,86,54,68,75,17,-100,97,53,66,30.23,29.96,2,-326,8,0.00
2013-7-14,90,56,76,78,15,-100,95,47,58,30.29,30.23,1,-333,5,0.00
2013-7-15,95,60,72,79,23,-100,94,50,49,30.26,30.13,1,-297,4,0.01
2013-7-16,97,66,77,76,30,-100,87,47,44,30.18,30.11,1,-250,6,0.01
2013-7-17,98,79,75,76,58,-100,89,62,39,30.15,30.05,1,-83,6,0.02
2013-7-18,95,86,76,80,76,72,89,74,56,30.06,29.94,3,0,5,0.01
2013-7-19,96,87,79,78,76,74,85,70,53,29.96,29.82,1,0,6,0.01
2013-7-20,94,85,79,77,75,73,85,73,52,29.85,29.74,2,1,7,0.01
2013-7-21,93,81,74,75,72,70,90,75,48,29.89,29.83,2,0,6,0.01
2013-7-22,89,81,73,76,73,70,93,79,61,29.88,29.72,2,0,4,0.01
2013-7-23,87,79,74,75,72,68,96,80,57,29.72,29.59,3,0,9,0.01
2013-7-24,84,78,71,70,68,59,90,72,58,29.86,29.63,0,0,6,0.01
2013-7-25,80,72,65,65,60,54,78,67,55,29.98,29.86,1,0,7,0.00
2013-7-26,84,75,67,65,63,60,84,67,49,30.04,29.97,4,0,6,0.01
2013-7-27,85,76,67,71,68,64,93,76,62,30.02,29.89,1,0,5,0.00
2013-7-28,86,78,73,74,70,65,85,75,64,29.92,29.83,1,0,6,0.00
2013-7-29,87,75,66,69,59,53,88,62,32,30.11,29.92,2,0,7,0.01
2013-7-30,86,73,62,65,60,55,86,66,35,30.18,30.09,1,0,2,0.00
2013-7-31,86,75,66,69,66,62,90,74,55,30.11,29.98,2,0,5,0.00